Time;durP1;ratioP1;P1;durP2;ratioP2;P2;SDS_P1;SDS_P2;PMS_P1;PMS_P2;Temp;Humidity;BMP_temperature;BMP_pressure;BME280_temperature;BME280_humidity;BME280_pressure;Samples;Min_cycle;Max_cycle;Signal;HPM_P1;HPM_P2
2022/02/20 00:01:10;;;;;;;14.60;4.43;;;;;;;;;;5012365;28;20487;-43
2022/02/20 00:03:36;;;;;;;12.00;4.07;;;;;;;;;;5012516;28;20435;-43
2022/02/20 00:06:03;;;;;;;5.37;3.40;;;;;;;;;;5012442;28;20205;-44
2022/02/20 00:08:29;;;;;;;7.13;3.72;;;;;;;;;;5012402;28;20403;-43
2022/02/20 00:10:55;;;;;;;7.55;3.50;;;;;;;;;;5011931;28;20706;-42
2022/02/20 00:13:21;;;;;;;7.83;3.30;;;;;;;;;;5012275;28;20173;-43
2022/02/20 00:15:47;;;;;;;13.17;3.67;;;;;;;;;;5012081;28;20400;-43
2022/02/20 00:18:13;;;;;;;4.83;3.03;;;;;;;;;;5012341;28;20397;-44
2022/02/20 00:20:39;;;;;;;9.50;2.93;;;;;;;;;;5011995;28;20399;-43
2022/02/20 00:23:05;;;;;;;6.57;3.53;;;;;;;;;;5012420;28;20439;-42
2022/02/20 00:25:33;;;;;;;5.37;2.80;;;;;;;;;;5012031;28;20409;-43
2022/02/20 00:27:59;;;;;;;8.33;3.57;;;;;;;;;;5011896;28;20457;-43
2022/02/20 00:30:25;;;;;;;8.40;4.00;;;;;;;;;;5011778;28;20418;-42
2022/02/20 00:32:52;;;;;;;10.20;4.13;;;;;;;;;;5011575;28;20912;-43
2022/02/20 00:35:18;;;;;;;9.63;3.85;;;;;;;;;;5012038;28;20726;-42
2022/02/20 00:37:44;;;;;;;17.53;5.30;;;;;;;;;;5011637;28;20736;-43
2022/02/20 00:40:10;;;;;;;4.37;2.90;;;;;;;;;;5010938;28;20479;-43
2022/02/20 00:42:36;;;;;;;5.22;3.03;;;;;;;;;;5009925;28;20623;-43
2022/02/20 00:45:04;;;;;;;11.07;3.35;;;;;;;;;;5010088;28;20222;-44
2022/02/20 00:47:30;;;;;;;3.45;3.15;;;;;;;;;;5010618;28;20192;-43
2022/02/20 00:49:55;;;;;;;3.50;3.00;;;;;;;;;;5011010;28;20171;-43
2022/02/20 00:52:21;;;;;;;5.63;2.50;;;;;;;;;;5012148;28;20978;-43
2022/02/20 00:54:47;;;;;;;3.20;2.90;;;;;;;;;;5011547;28;21196;-42
2022/02/20 00:57:14;;;;;;;5.93;3.40;;;;;;;;;;5011398;28;20804;-43
2022/02/20 00:59:40;;;;;;;10.88;3.40;;;;;;;;;;5012046;28;20895;-43
2022/02/20 01:02:06;;;;;;;5.50;3.30;;;;;;;;;;5011468;28;20196;-44
2022/02/20 01:04:32;;;;;;;4.73;3.53;;;;;;;;;;5011525;28;20675;-43
2022/02/20 01:06:58;;;;;;;8.20;3.50;;;;;;;;;;5011459;28;20778;-43
2022/02/20 01:09:24;;;;;;;5.03;3.70;;;;;;;;;;5011260;28;20415;-43
2022/02/20 01:11:50;;;;;;;9.13;3.20;;;;;;;;;;5011413;28;20422;-43
2022/02/20 01:14:16;;;;;;;9.93;3.90;;;;;;;;;;5011340;28;20915;-44
2022/02/20 01:16:42;;;;;;;7.47;3.40;;;;;;;;;;5011471;28;20800;-43
2022/02/20 01:19:08;;;;;;;10.07;4.22;;;;;;;;;;5011135;28;20397;-43
2022/02/20 01:21:34;;;;;;;4.60;3.00;;;;;;;;;;5011450;28;20666;-43
2022/02/20 01:24:00;;;;;;;4.47;3.30;;;;;;;;;;5011297;28;20407;-43
2022/02/20 01:26:26;;;;;;;6.77;3.53;;;;;;;;;;5011497;28;20430;-43
2022/02/20 01:28:52;;;;;;;5.77;3.47;;;;;;;;;;5010960;28;20403;-43
2022/02/20 01:31:18;;;;;;;10.17;3.73;;;;;;;;;;5011088;28;20977;-43
2022/02/20 01:33:44;;;;;;;19.23;3.87;;;;;;;;;;5011096;28;20744;-44
2022/02/20 01:36:10;;;;;;;10.17;3.70;;;;;;;;;;5010997;28;20481;-43
2022/02/20 01:38:36;;;;;;;5.93;3.00;;;;;;;;;;5011672;28;20426;-44
2022/02/20 01:41:02;;;;;;;6.23;2.60;;;;;;;;;;5010907;28;20404;-43
2022/02/20 01:43:28;;;;;;;5.13;3.00;;;;;;;;;;5011453;28;20427;-44
2022/02/20 01:45:54;;;;;;;4.50;2.67;;;;;;;;;;5010961;28;20199;-44
2022/02/20 01:48:21;;;;;;;6.90;3.73;;;;;;;;;;5011231;28;20479;-44
2022/02/20 01:50:47;;;;;;;8.80;2.63;;;;;;;;;;5010817;28;20474;-43
2022/02/20 01:53:13;;;;;;;4.40;2.58;;;;;;;;;;5010919;28;20251;-43
2022/02/20 01:55:40;;;;;;;8.13;3.07;;;;;;;;;;5011001;28;20261;-44
2022/02/20 01:58:06;;;;;;;4.10;2.85;;;;;;;;;;5010669;28;20466;-43
2022/02/20 02:00:32;;;;;;;6.40;3.17;;;;;;;;;;5010690;28;20543;-44
2022/02/20 02:02:58;;;;;;;4.18;2.80;;;;;;;;;;5010770;28;20633;-44
2022/02/20 02:05:26;;;;;;;9.97;3.30;;;;;;;;;;5010925;28;20474;-44
2022/02/20 02:07:52;;;;;;;6.05;3.10;;;;;;;;;;5014279;28;20767;-43
2022/02/20 02:10:18;;;;;;;5.63;3.33;;;;;;;;;;5014537;28;20194;-43
2022/02/20 02:12:44;;;;;;;8.15;3.30;;;;;;;;;;5015098;28;20395;-44
2022/02/20 02:15:12;;;;;;;6.22;2.70;;;;;;;;;;5014936;28;20248;-43
2022/02/20 02:17:38;;;;;;;3.55;3.08;;;;;;;;;;5014862;28;20207;-43
2022/02/20 02:20:05;;;;;;;11.65;3.60;;;;;;;;;;5014567;28;20173;-44
2022/02/20 02:22:31;;;;;;;5.10;2.70;;;;;;;;;;5014529;28;20440;-44
2022/02/20 02:24:58;;;;;;;3.20;2.47;;;;;;;;;;5014571;28;20180;-43
2022/02/20 02:27:24;;;;;;;8.52;3.25;;;;;;;;;;5014183;28;20192;-44
2022/02/20 02:29:51;;;;;;;6.57;3.17;;;;;;;;;;5014112;28;20240;-44
2022/02/20 02:32:17;;;;;;;5.10;3.15;;;;;;;;;;5014196;28;20543;-43
2022/02/20 02:34:44;;;;;;;5.20;3.55;;;;;;;;;;5014276;28;20541;-44
2022/02/20 02:37:10;;;;;;;6.28;3.50;;;;;;;;;;5014051;28;20224;-43
2022/02/20 02:39:37;;;;;;;4.37;3.87;;;;;;;;;;5013963;28;20207;-44
2022/02/20 02:42:04;;;;;;;5.65;3.70;;;;;;;;;;5013855;28;20404;-43
2022/02/20 02:44:30;;;;;;;7.28;3.42;;;;;;;;;;5014103;28;20632;-44
2022/02/20 02:46:56;;;;;;;9.20;3.60;;;;;;;;;;5014114;28;20204;-42
2022/02/20 02:49:22;;;;;;;10.33;4.43;;;;;;;;;;5013792;28;20411;-44
2022/02/20 02:51:48;;;;;;;4.95;3.60;;;;;;;;;;5013809;28;20439;-44
2022/02/20 02:54:17;;;;;;;6.70;3.70;;;;;;;;;;5013891;28;20631;-43
2022/02/20 02:56:44;;;;;;;6.88;4.15;;;;;;;;;;5013694;28;20958;-43
2022/02/20 02:59:10;;;;;;;16.05;3.90;;;;;;;;;;5013802;28;20180;-43
2022/02/20 03:01:36;;;;;;;5.15;4.00;;;;;;;;;;5013867;28;20172;-44
2022/02/20 03:04:02;;;;;;;7.00;3.90;;;;;;;;;;5013674;28;20164;-43
2022/02/20 03:06:28;;;;;;;9.80;4.40;;;;;;;;;;5013504;28;20427;-44
2022/02/20 03:08:54;;;;;;;9.53;3.90;;;;;;;;;;5013315;28;20919;-43
2022/02/20 03:11:21;;;;;;;5.97;3.97;;;;;;;;;;5013530;28;20410;-44
2022/02/20 03:13:47;;;;;;;12.65;3.95;;;;;;;;;;5013625;28;20164;-44
2022/02/20 03:16:13;;;;;;;5.57;3.60;;;;;;;;;;5013580;28;20674;-44
2022/02/20 03:18:39;;;;;;;7.53;4.95;;;;;;;;;;5012122;28;20494;-43
2022/02/20 03:21:06;;;;;;;7.13;3.87;;;;;;;;;;5013168;28;20209;-43
2022/02/20 03:23:32;;;;;;;3.90;3.60;;;;;;;;;;5013167;28;20406;-43
2022/02/20 03:25:58;;;;;;;3.95;3.35;;;;;;;;;;5013379;28;20246;-44
2022/02/20 03:28:24;;;;;;;7.33;4.10;;;;;;;;;;5013412;28;20637;-44
2022/02/20 03:30:50;;;;;;;4.03;3.63;;;;;;;;;;5013122;28;20758;-44
2022/02/20 03:33:16;;;;;;;7.50;3.13;;;;;;;;;;5013086;28;20392;-43
2022/02/20 03:35:43;;;;;;;4.60;3.30;;;;;;;;;;5012650;28;20985;-44
2022/02/20 03:38:09;;;;;;;2.60;2.28;;;;;;;;;;5012049;28;20462;-44
2022/02/20 03:40:35;;;;;;;4.00;2.60;;;;;;;;;;5012696;28;20214;-44
2022/02/20 03:43:01;;;;;;;8.63;3.30;;;;;;;;;;5013106;28;20582;-43
2022/02/20 03:45:27;;;;;;;4.07;2.60;;;;;;;;;;5013077;28;20160;-43
2022/02/20 03:47:53;;;;;;;3.10;2.80;;;;;;;;;;5013063;28;20427;-44
2022/02/20 03:50:22;;;;;;;5.93;3.40;;;;;;;;;;5013002;28;20199;-44
2022/02/20 03:52:48;;;;;;;6.38;3.70;;;;;;;;;;5013254;28;20496;-44
2022/02/20 03:55:14;;;;;;;4.22;3.78;;;;;;;;;;5012811;28;20171;-44
2022/02/20 03:57:40;;;;;;;3.60;3.28;;;;;;;;;;5012548;28;20216;-44
2022/02/20 04:00:10;;;;;;;5.60;3.92;;;;;;;;;;5012565;28;20549;-44
2022/02/20 04:02:36;;;;;;;9.35;3.90;;;;;;;;;;5012634;28;20172;-44
2022/02/20 04:05:03;;;;;;;4.95;4.38;;;;;;;;;;5012605;28;20678;-43
2022/02/20 04:07:30;;;;;;;8.00;4.70;;;;;;;;;;5012324;28;20230;-44
2022/02/20 04:09:59;;;;;;;5.68;4.45;;;;;;;;;;5012471;28;20251;-44
2022/02/20 04:12:25;;;;;;;6.28;4.22;;;;;;;;;;5012367;28;20170;-44
2022/02/20 04:14:53;;;;;;;4.43;4.03;;;;;;;;;;5012422;28;20577;-43
2022/02/20 04:17:24;;;;;;;5.45;4.30;;;;;;;;;;5012611;28;20196;-44
2022/02/20 04:19:50;;;;;;;8.13;4.65;;;;;;;;;;5012086;28;20163;-44
2022/02/20 04:22:16;;;;;;;9.00;6.27;;;;;;;;;;5012212;28;20168;-43
2022/02/20 04:24:42;;;;;;;6.00;3.87;;;;;;;;;;5012322;28;20461;-44
2022/02/20 04:27:08;;;;;;;7.18;4.72;;;;;;;;;;5012448;28;20435;-44
2022/02/20 04:29:34;;;;;;;4.20;3.70;;;;;;;;;;5011410;28;20182;-43
2022/02/20 04:32:00;;;;;;;7.63;3.93;;;;;;;;;;5011958;28;20411;-43
2022/02/20 04:34:26;;;;;;;3.85;3.25;;;;;;;;;;5011898;28;20915;-44
2022/02/20 04:36:53;;;;;;;9.40;3.53;;;;;;;;;;5011851;28;20286;-43
2022/02/20 04:39:19;;;;;;;6.70;3.25;;;;;;;;;;5011684;28;20411;-44
2022/02/20 04:41:45;;;;;;;12.20;3.20;;;;;;;;;;5011781;28;20702;-44
2022/02/20 04:44:11;;;;;;;6.78;3.00;;;;;;;;;;5011867;28;20164;-43
2022/02/20 04:49:40;;;;;;;11.20;3.10;;;;;;;;;;5011829;28;20218;-43
2022/02/20 04:52:06;;;;;;;5.17;2.80;;;;;;;;;;5011715;28;20652;-44
2022/02/20 04:54:32;;;;;;;5.40;2.70;;;;;;;;;;5011648;28;20411;-44
2022/02/20 04:56:58;;;;;;;12.00;3.80;;;;;;;;;;5011637;28;20473;-44
2022/02/20 04:59:24;;;;;;;4.83;3.20;;;;;;;;;;5011476;28;20410;-44
2022/02/20 05:01:50;;;;;;;3.97;3.37;;;;;;;;;;5011553;28;20751;-44
2022/02/20 05:04:16;;;;;;;7.25;3.00;;;;;;;;;;5011506;28;20403;-44
2022/02/20 05:06:42;;;;;;;6.95;2.85;;;;;;;;;;5011462;28;20188;-44
2022/02/20 05:09:08;;;;;;;6.37;2.90;;;;;;;;;;5011427;28;20183;-45
2022/02/20 05:11:34;;;;;;;5.10;2.23;;;;;;;;;;5011594;28;20423;-44
2022/02/20 05:14:00;;;;;;;5.38;2.80;;;;;;;;;;5011789;28;20418;-44
2022/02/20 05:16:27;;;;;;;3.83;2.47;;;;;;;;;;5011284;28;20200;-44
2022/02/20 05:18:54;;;;;;;2.60;2.38;;;;;;;;;;5011159;28;20273;-44
2022/02/20 05:21:20;;;;;;;5.20;2.58;;;;;;;;;;5011546;28;20644;-44
2022/02/20 05:23:46;;;;;;;4.83;2.87;;;;;;;;;;5011457;28;20168;-44
2022/02/20 05:26:15;;;;;;;5.35;3.40;;;;;;;;;;5011537;28;20600;-44
2022/02/20 05:28:41;;;;;;;4.70;3.00;;;;;;;;;;5011535;28;20730;-44
2022/02/20 05:31:08;;;;;;;8.52;3.65;;;;;;;;;;5011094;28;20168;-44
2022/02/20 05:33:34;;;;;;;8.80;3.33;;;;;;;;;;5011222;28;20165;-43
2022/02/20 05:36:00;;;;;;;6.78;3.33;;;;;;;;;;5011281;28;20238;-44
2022/02/20 05:38:26;;;;;;;11.43;3.33;;;;;;;;;;5011330;28;20644;-44
2022/02/20 05:40:52;;;;;;;7.77;3.70;;;;;;;;;;5011513;28;20414;-44
2022/02/20 05:43:18;;;;;;;7.23;4.20;;;;;;;;;;5015556;28;20838;-44
2022/02/20 05:45:44;;;;;;;5.27;4.00;;;;;;;;;;5015112;28;20453;-44
2022/02/20 05:48:10;;;;;;;5.50;4.47;;;;;;;;;;5015010;28;20931;-44
2022/02/20 05:50:36;;;;;;;5.45;3.80;;;;;;;;;;5014803;28;20911;-44
2022/02/20 05:53:02;;;;;;;9.73;4.27;;;;;;;;;;5014964;28;20225;-44
2022/02/20 05:55:28;;;;;;;9.77;4.93;;;;;;;;;;5015002;28;20941;-44
2022/02/20 05:57:55;;;;;;;17.00;5.13;;;;;;;;;;5015184;28;20207;-44
2022/02/20 06:00:24;;;;;;;15.05;4.90;;;;;;;;;;5014598;28;20168;-44
2022/02/20 06:02:50;;;;;;;8.18;4.28;;;;;;;;;;5014931;28;20200;-44
2022/02/20 06:05:16;;;;;;;6.10;3.73;;;;;;;;;;5015019;28;20621;-44
2022/02/20 06:07:42;;;;;;;4.65;3.80;;;;;;;;;;5014664;28;20502;-44
2022/02/20 06:10:09;;;;;;;8.85;5.47;;;;;;;;;;5014550;28;20188;-45
2022/02/20 06:12:35;;;;;;;7.47;5.00;;;;;;;;;;5014634;28;20180;-44
2022/02/20 06:15:01;;;;;;;7.35;4.75;;;;;;;;;;5014498;28;20640;-44
2022/02/20 06:17:27;;;;;;;9.50;4.15;;;;;;;;;;5014391;28;20200;-44
2022/02/20 06:19:53;;;;;;;8.55;4.55;;;;;;;;;;5014576;28;20165;-44
2022/02/20 06:22:19;;;;;;;12.10;4.97;;;;;;;;;;5014520;28;20267;-44
2022/02/20 06:24:45;;;;;;;10.53;4.30;;;;;;;;;;5014408;28;20435;-44
2022/02/20 06:27:11;;;;;;;6.47;5.57;;;;;;;;;;5014314;28;20427;-44
2022/02/20 06:29:37;;;;;;;9.18;5.13;;;;;;;;;;5014026;28;20837;-44
2022/02/20 06:32:04;;;;;;;17.13;6.50;;;;;;;;;;5014241;28;20169;-43
2022/02/20 06:34:30;;;;;;;10.30;4.90;;;;;;;;;;5014322;28;20434;-44
2022/02/20 06:36:56;;;;;;;12.10;5.22;;;;;;;;;;5014072;28;20200;-44
2022/02/20 06:39:22;;;;;;;15.20;6.00;;;;;;;;;;5014116;28;20640;-44
2022/02/20 06:41:48;;;;;;;17.17;6.70;;;;;;;;;;5014492;28;20434;-44
2022/02/20 06:44:14;;;;;;;9.77;5.55;;;;;;;;;;5014044;28;20415;-44
2022/02/20 06:46:42;;;;;;;20.90;6.50;;;;;;;;;;5014224;28;20187;-44
2022/02/20 06:49:08;;;;;;;19.45;7.10;;;;;;;;;;5013877;28;20164;-44
2022/02/20 06:51:36;;;;;;;14.75;6.35;;;;;;;;;;5013679;28;20168;-44
2022/02/20 06:54:03;;;;;;;10.82;5.53;;;;;;;;;;5013881;28;20171;-45
2022/02/20 06:56:29;;;;;;;12.85;5.18;;;;;;;;;;5013634;28;20199;-44
2022/02/20 06:58:55;;;;;;;13.07;5.73;;;;;;;;;;5015933;28;20176;-45
2022/02/20 07:01:21;;;;;;;14.10;5.60;;;;;;;;;;5017930;28;20411;-45
2022/02/20 07:03:47;;;;;;;8.33;4.80;;;;;;;;;;5017811;28;20442;-45
2022/02/20 07:06:13;;;;;;;11.33;5.63;;;;;;;;;;5017279;28;20453;-45
2022/02/20 07:08:39;;;;;;;12.27;5.33;;;;;;;;;;5017547;28;20435;-44
2022/02/20 07:11:05;;;;;;;17.38;6.25;;;;;;;;;;5016636;28;20906;-44
2022/02/20 07:13:31;;;;;;;15.50;6.22;;;;;;;;;;5017363;28;21270;-45
2022/02/20 07:15:57;;;;;;;12.63;5.35;;;;;;;;;;5017403;28;20169;-45
2022/02/20 07:18:23;;;;;;;13.03;5.73;;;;;;;;;;5017846;28;20280;-45
2022/02/20 07:20:50;;;;;;;15.85;5.88;;;;;;;;;;5017303;28;20407;-45
2022/02/20 07:23:16;;;;;;;16.45;6.10;;;;;;;;;;5017431;28;20160;-45
2022/02/20 07:25:42;;;;;;;13.15;6.22;;;;;;;;;;5017957;28;20237;-45
2022/02/20 07:28:09;;;;;;;12.40;6.00;;;;;;;;;;5018739;28;20215;-46
2022/02/20 07:30:35;;;;;;;11.95;5.72;;;;;;;;;;5017362;28;20255;-44
2022/02/20 07:33:07;;;;;;;10.40;5.03;;;;;;;;;;5016728;28;20540;-45
2022/02/20 07:35:36;;;;;;;18.63;5.53;;;;;;;;;;5016604;28;20192;-45
2022/02/20 07:38:02;;;;;;;16.17;6.05;;;;;;;;;;5014497;28;20490;-44
2022/02/20 07:40:28;;;;;;;11.82;4.80;;;;;;;;;;5013781;28;20181;-44
2022/02/20 07:42:55;;;;;;;10.45;4.70;;;;;;;;;;5014489;28;20173;-44
2022/02/20 07:45:23;;;;;;;15.05;5.18;;;;;;;;;;5014393;28;20528;-45
2022/02/20 07:47:52;;;;;;;14.40;4.80;;;;;;;;;;5014010;28;20319;-45
2022/02/20 07:50:18;;;;;;;12.53;5.20;;;;;;;;;;5013423;28;20175;-45
2022/02/20 07:52:44;;;;;;;9.70;4.50;;;;;;;;;;5013150;28;20403;-45
2022/02/20 07:55:10;;;;;;;12.57;4.70;;;;;;;;;;5013390;28;20412;-45
2022/02/20 07:57:36;;;;;;;16.47;4.13;;;;;;;;;;5013486;28;20208;-45
2022/02/20 08:00:03;;;;;;;15.73;4.30;;;;;;;;;;5014014;28;20953;-45
2022/02/20 08:02:29;;;;;;;7.68;3.80;;;;;;;;;;5013343;28;20456;-45
2022/02/20 08:04:55;;;;;;;15.80;4.80;;;;;;;;;;5012819;28;20165;-45
2022/02/20 08:07:21;;;;;;;22.43;4.83;;;;;;;;;;5013238;28;20439;-45
2022/02/20 08:09:47;;;;;;;7.10;4.30;;;;;;;;;;5012868;28;20436;-44
2022/02/20 08:12:12;;;;;;;13.20;4.13;;;;;;;;;;5012964;28;20478;-45
2022/02/20 08:14:38;;;;;;;15.10;5.00;;;;;;;;;;5012876;28;20442;-45
2022/02/20 08:17:04;;;;;;;14.47;4.07;;;;;;;;;;5012689;28;20458;-45
2022/02/20 08:19:30;;;;;;;13.00;4.10;;;;;;;;;;5012672;28;20400;-45
2022/02/20 08:21:56;;;;;;;17.37;4.43;;;;;;;;;;5013374;28;20754;-45
2022/02/20 08:24:22;;;;;;;16.03;4.93;;;;;;;;;;5012674;28;20404;-45
2022/02/20 08:26:48;;;;;;;10.23;4.83;;;;;;;;;;5012437;28;20486;-44
2022/02/20 08:29:19;;;;;;;14.82;4.72;;;;;;;;;;5012354;28;20432;-45
2022/02/20 08:31:45;;;;;;;5.70;3.43;;;;;;;;;;5012533;28;20165;-45
2022/02/20 08:34:10;;;;;;;4.80;4.30;;;;;;;;;;5012269;28;20415;-44
2022/02/20 08:36:38;;;;;;;7.30;4.80;;;;;;;;;;5012214;28;20457;-45
2022/02/20 08:39:04;;;;;;;7.07;3.60;;;;;;;;;;5011907;28;20457;-45
2022/02/20 08:41:30;;;;;;;5.63;4.30;;;;;;;;;;5013349;28;20822;-45
2022/02/20 08:43:56;;;;;;;5.80;4.13;;;;;;;;;;5011704;28;20419;-45
2022/02/20 08:46:22;;;;;;;11.00;4.80;;;;;;;;;;5010287;28;20432;-45
2022/02/20 08:48:48;;;;;;;11.20;5.17;;;;;;;;;;5010318;28;20467;-44
2022/02/20 08:51:15;;;;;;;14.43;5.27;;;;;;;;;;5010001;28;20412;-45
2022/02/20 08:53:41;;;;;;;5.97;3.77;;;;;;;;;;5011482;28;20967;-45
2022/02/20 08:56:08;;;;;;;15.10;4.90;;;;;;;;;;5011526;28;20444;-44
2022/02/20 08:58:34;;;;;;;6.23;5.00;;;;;;;;;;5011744;28;20404;-45
2022/02/20 09:01:02;;;;;;;4.83;4.33;;;;;;;;;;5011440;28;20412;-44
2022/02/20 09:03:28;;;;;;;6.70;4.23;;;;;;;;;;5011558;28;20925;-45
2022/02/20 09:05:54;;;;;;;13.30;5.23;;;;;;;;;;5011787;28;20428;-45
2022/02/20 09:08:20;;;;;;;7.90;5.37;;;;;;;;;;5011778;28;20813;-44
2022/02/20 09:10:48;;;;;;;6.43;4.00;;;;;;;;;;5011430;28;20397;-45
2022/02/20 09:13:14;;;;;;;11.03;5.23;;;;;;;;;;5011280;28;20397;-44
2022/02/20 09:15:40;;;;;;;9.73;5.40;;;;;;;;;;5011654;28;20397;-44
2022/02/20 09:18:06;;;;;;;11.20;5.47;;;;;;;;;;5011228;28;20514;-45
2022/02/20 09:20:32;;;;;;;11.50;5.10;;;;;;;;;;5011223;28;20401;-45
2022/02/20 09:22:58;;;;;;;7.70;4.40;;;;;;;;;;5011328;28;20488;-45
2022/02/20 09:25:24;;;;;;;12.87;5.20;;;;;;;;;;5011280;28;20409;-44
2022/02/20 09:27:50;;;;;;;13.47;5.63;;;;;;;;;;5011228;28;20944;-44
2022/02/20 09:30:16;;;;;;;8.17;5.00;;;;;;;;;;5011212;28;20412;-44
2022/02/20 09:32:43;;;;;;;11.97;4.90;;;;;;;;;;5011277;28;20910;-45
2022/02/20 09:35:09;;;;;;;7.77;4.90;;;;;;;;;;5011400;28;20412;-44
2022/02/20 09:37:35;;;;;;;8.00;4.20;;;;;;;;;;5011197;28;20558;-44
2022/02/20 09:40:01;;;;;;;5.13;3.90;;;;;;;;;;5011027;28;20505;-43
2022/02/20 09:42:27;;;;;;;5.23;3.40;;;;;;;;;;5011084;28;20475;-45
2022/02/20 09:44:54;;;;;;;6.30;4.03;;;;;;;;;;5011541;28;20905;-43
2022/02/20 09:47:23;;;;;;;5.40;3.50;;;;;;;;;;5011054;28;20417;-43
2022/02/20 09:49:50;;;;;;;7.00;4.00;;;;;;;;;;5010996;28;20419;-45
2022/02/20 09:52:15;;;;;;;7.63;3.60;;;;;;;;;;5011240;28;20937;-44
2022/02/20 09:54:41;;;;;;;9.20;3.20;;;;;;;;;;5011257;28;20700;-44
2022/02/20 09:57:07;;;;;;;11.40;3.77;;;;;;;;;;5010841;28;20464;-44
2022/02/20 09:59:33;;;;;;;10.83;3.40;;;;;;;;;;5011178;28;20752;-44
2022/02/20 10:02:10;;;;;;;3.60;2.80;;;;;;;;;;5009737;28;20423;-44
2022/02/20 10:04:43;;;;;;;8.73;3.33;;;;;;;;;;5010659;28;20402;-44
2022/02/20 10:07:25;;;;;;;5.43;2.90;;;;;;;;;;5010690;28;20510;-44
2022/02/20 10:09:51;;;;;;;3.00;2.80;;;;;;;;;;5010767;28;20402;-44
2022/02/20 10:12:18;;;;;;;3.50;3.20;;;;;;;;;;5012444;28;20423;-43
2022/02/20 10:14:44;;;;;;;7.57;3.47;;;;;;;;;;5010790;28;20420;-44
2022/02/20 10:17:17;;;;;;;3.13;2.90;;;;;;;;;;5010274;28;20573;-44
2022/02/20 10:19:53;;;;;;;10.13;3.07;;;;;;;;;;5010639;28;20611;-44
2022/02/20 10:22:45;;;;;;;4.47;2.80;;;;;;;;;;5010304;28;20915;-44
2022/02/20 10:25:12;;;;;;;8.40;4.43;;;;;;;;;;5007155;28;20411;-44
2022/02/20 10:27:47;;;;;;;4.47;2.97;;;;;;;;;;5011974;28;20428;-43
2022/02/20 10:30:13;;;;;;;10.00;2.90;;;;;;;;;;5012599;28;20428;-44
2022/02/20 10:32:39;;;;;;;3.13;2.83;;;;;;;;;;5014252;28;20410;-43
2022/02/20 10:35:09;;;;;;;3.40;2.73;;;;;;;;;;5014462;28;20449;-44
2022/02/20 10:37:36;;;;;;;6.83;2.33;;;;;;;;;;5014402;28;20456;-43
2022/02/20 10:40:02;;;;;;;6.43;3.60;;;;;;;;;;5013786;28;20407;-44
2022/02/20 10:42:28;;;;;;;4.40;2.10;;;;;;;;;;5014083;28;20748;-43
2022/02/20 10:44:58;;;;;;;4.50;2.63;;;;;;;;;;5014152;28;20471;-43
2022/02/20 10:47:25;;;;;;;4.57;2.40;;;;;;;;;;5013945;28;20426;-45
2022/02/20 10:49:51;;;;;;;2.30;2.10;;;;;;;;;;5013783;28;20439;-44
2022/02/20 10:52:32;;;;;;;7.50;2.03;;;;;;;;;;5014345;28;20769;-44
2022/02/20 10:55:11;;;;;;;1.83;1.53;;;;;;;;;;5014143;28;20395;-44
2022/02/20 10:57:49;;;;;;;6.07;2.73;;;;;;;;;;5013549;28;20466;-44
2022/02/20 11:00:16;;;;;;;11.17;2.93;;;;;;;;;;5013940;28;20401;-44
2022/02/20 11:02:43;;;;;;;7.43;2.80;;;;;;;;;;5013738;28;20405;-44
2022/02/20 11:05:10;;;;;;;7.13;3.10;;;;;;;;;;5013523;28;20399;-44
2022/02/20 11:07:39;;;;;;;5.20;2.50;;;;;;;;;;5013297;28;20442;-43
2022/02/20 11:10:06;;;;;;;11.10;2.40;;;;;;;;;;5013042;28;20406;-44
2022/02/20 11:12:35;;;;;;;5.53;2.83;;;;;;;;;;5013322;28;20415;-44
2022/02/20 11:15:02;;;;;;;6.47;2.77;;;;;;;;;;5013258;28;20783;-44
2022/02/20 11:17:28;;;;;;;10.23;2.70;;;;;;;;;;5013187;28;20465;-44
2022/02/20 11:19:55;;;;;;;8.53;3.33;;;;;;;;;;5013096;28;20490;-44
2022/02/20 11:22:21;;;;;;;8.00;3.63;;;;;;;;;;5013241;28;20453;-44
2022/02/20 11:24:49;;;;;;;5.23;3.10;;;;;;;;;;5013107;28;20410;-44
2022/02/20 11:27:15;;;;;;;3.57;2.30;;;;;;;;;;5012998;28;20477;-44
2022/02/20 11:29:42;;;;;;;5.40;2.60;;;;;;;;;;5013091;28;20410;-44
2022/02/20 11:32:08;;;;;;;8.53;2.17;;;;;;;;;;5013613;28;20750;-44
2022/02/20 11:34:42;;;;;;;13.40;2.90;;;;;;;;;;5013188;28;20411;-44
2022/02/20 11:37:08;;;;;;;4.77;3.73;;;;;;;;;;5013074;28;20457;-44
2022/02/20 11:39:34;;;;;;;6.20;2.57;;;;;;;;;;5011664;28;20526;-44
2022/02/20 11:42:07;;;;;;;9.00;2.93;;;;;;;;;;5012779;28;20435;-44
2022/02/20 11:44:45;;;;;;;4.60;2.40;;;;;;;;;;5013069;28;20421;-43
2022/02/20 11:47:31;;;;;;;7.00;2.40;;;;;;;;;;5013085;28;20418;-44
2022/02/20 11:50:17;;;;;;;5.33;2.30;;;;;;;;;;5012847;28;20402;-44
2022/02/20 11:52:48;;;;;;;3.87;1.80;;;;;;;;;;5012794;28;20410;-44
2022/02/20 11:55:16;;;;;;;7.17;2.50;;;;;;;;;;5012867;28;20406;-43
2022/02/20 11:57:44;;;;;;;7.87;2.77;;;;;;;;;;5012471;28;20858;-43
2022/02/20 12:00:13;;;;;;;7.07;2.50;;;;;;;;;;5012471;28;20818;-44
2022/02/20 12:02:58;;;;;;;9.03;2.87;;;;;;;;;;5012511;28;20427;-45
2022/02/20 12:05:24;;;;;;;9.43;2.60;;;;;;;;;;4992885;28;20402;-44
2022/02/20 12:07:50;;;;;;;8.40;2.70;;;;;;;;;;5011712;28;20430;-44
2022/02/20 12:10:23;;;;;;;5.17;2.83;;;;;;;;;;5012340;28;20447;-44
2022/02/20 12:12:51;;;;;;;8.60;2.83;;;;;;;;;;5012345;28;20407;-44
2022/02/20 12:15:27;;;;;;;6.60;2.40;;;;;;;;;;5012182;28;20490;-44
2022/02/20 12:18:00;;;;;;;6.33;2.37;;;;;;;;;;5012122;28;20566;-44
2022/02/20 12:20:48;;;;;;;5.47;3.00;;;;;;;;;;5011956;28;20414;-44
2022/02/20 12:23:27;;;;;;;6.80;2.40;;;;;;;;;;5012244;28;20413;-44
2022/02/20 12:25:53;;;;;;;5.27;2.30;;;;;;;;;;5012015;28;20457;-44
2022/02/20 12:28:31;;;;;;;5.80;2.90;;;;;;;;;;5012033;28;20781;-44
2022/02/20 12:30:57;;;;;;;3.57;2.00;;;;;;;;;;5012290;28;20835;-44
2022/02/20 12:33:30;;;;;;;9.30;1.97;;;;;;;;;;5012010;28;20420;-43
2022/02/20 12:35:57;;;;;;;10.70;2.37;;;;;;;;;;5012000;28;20401;-44
2022/02/20 12:38:23;;;;;;;8.80;2.90;;;;;;;;;;5012319;28;20457;-43
2022/02/20 12:40:49;;;;;;;5.10;2.33;;;;;;;;;;5011891;28;20772;-44
2022/02/20 12:43:15;;;;;;;7.60;2.27;;;;;;;;;;5012130;28;20395;-44
2022/02/20 12:45:44;;;;;;;4.13;2.00;;;;;;;;;;5012125;28;20886;-44
2022/02/20 12:48:10;;;;;;;6.63;3.40;;;;;;;;;;5011882;28;20480;-45
2022/02/20 12:50:38;;;;;;;6.10;2.60;;;;;;;;;;5011151;28;20399;-44
2022/02/20 12:53:04;;;;;;;8.37;2.90;;;;;;;;;;5010524;28;20902;-44
2022/02/20 12:55:31;;;;;;;14.77;2.80;;;;;;;;;;5011628;28;20415;-45
2022/02/20 12:57:58;;;;;;;4.67;2.83;;;;;;;;;;5011368;28;20474;-44
2022/02/20 13:00:26;;;;;;;8.83;2.63;;;;;;;;;;5012097;28;20435;-44
2022/02/20 13:02:55;;;;;;;4.80;2.87;;;;;;;;;;5011522;28;20402;-44
2022/02/20 13:05:35;;;;;;;12.63;3.57;;;;;;;;;;5011283;28;20404;-44
2022/02/20 13:08:02;;;;;;;12.97;3.63;;;;;;;;;;4991773;28;20435;-44
2022/02/20 13:10:30;;;;;;;5.73;2.87;;;;;;;;;;4991499;28;20559;-44
2022/02/20 13:12:56;;;;;;;8.10;2.47;;;;;;;;;;4991698;28;20404;-45
2022/02/20 13:15:22;;;;;;;3.27;2.33;;;;;;;;;;4991755;28;20433;-45
2022/02/20 13:17:53;;;;;;;5.00;2.73;;;;;;;;;;4991802;28;20473;-44
2022/02/20 13:20:25;;;;;;;4.30;2.53;;;;;;;;;;4991267;28;20411;-44
2022/02/20 13:22:51;;;;;;;12.93;2.73;;;;;;;;;;4991470;28;20491;-44
2022/02/20 13:25:18;;;;;;;11.17;2.80;;;;;;;;;;4991625;28;20494;-44
2022/02/20 13:27:44;;;;;;;6.33;2.30;;;;;;;;;;4991989;28;20422;-44
2022/02/20 13:30:11;;;;;;;10.00;4.00;;;;;;;;;;4991371;28;20422;-45
2022/02/20 13:32:37;;;;;;;7.67;3.50;;;;;;;;;;4991414;28;20404;-45
2022/02/20 13:35:04;;;;;;;10.80;2.80;;;;;;;;;;4991623;28;20502;-44
2022/02/20 13:37:30;;;;;;;10.13;3.33;;;;;;;;;;4991628;28;20458;-45
2022/02/20 13:39:57;;;;;;;10.07;3.57;;;;;;;;;;4991405;28;20506;-44
2022/02/20 13:42:23;;;;;;;7.60;2.93;;;;;;;;;;4991690;28;20413;-44
2022/02/20 13:44:49;;;;;;;7.60;2.47;;;;;;;;;;4991326;28;20416;-45
2022/02/20 13:47:16;;;;;;;9.07;3.20;;;;;;;;;;4991444;28;20538;-45
2022/02/20 13:49:46;;;;;;;8.93;2.87;;;;;;;;;;4991232;28;20415;-44
2022/02/20 13:52:21;;;;;;;14.80;3.40;;;;;;;;;;4991442;28;20965;-44
2022/02/20 13:54:47;;;;;;;13.07;3.37;;;;;;;;;;4991460;28;20438;-44
2022/02/20 13:57:24;;;;;;;13.67;3.20;;;;;;;;;;4990623;28;20472;-43
2022/02/20 13:59:49;;;;;;;12.17;5.70;;;;;;;;;;4990292;28;20981;-44
2022/02/20 14:02:16;;;;;;;9.93;3.87;;;;;;;;;;4991504;28;20414;-44
2022/02/20 14:04:42;;;;;;;8.90;3.40;;;;;;;;;;4993843;28;20478;-44
2022/02/20 14:07:14;;;;;;;11.40;3.37;;;;;;;;;;5006341;28;20536;-44
2022/02/20 14:09:47;;;;;;;5.33;3.10;;;;;;;;;;5013069;28;20945;-44
2022/02/20 14:12:13;;;;;;;9.10;3.67;;;;;;;;;;5013046;28;20399;-45
2022/02/20 14:14:39;;;;;;;9.80;4.20;;;;;;;;;;5013225;28;20816;-44
2022/02/20 14:17:05;;;;;;;10.77;3.30;;;;;;;;;;5013303;28;20459;-44
2022/02/20 14:19:31;;;;;;;6.83;3.17;;;;;;;;;;5013151;28;20841;-44
2022/02/20 14:21:59;;;;;;;7.63;3.57;;;;;;;;;;5013123;28;20407;-44
2022/02/20 14:24:25;;;;;;;14.53;3.57;;;;;;;;;;5013156;28;20403;-45
2022/02/20 14:26:52;;;;;;;6.20;3.50;;;;;;;;;;5013140;28;20460;-44
2022/02/20 14:29:26;;;;;;;5.90;3.13;;;;;;;;;;5012939;28;20761;-43
2022/02/20 14:32:00;;;;;;;5.90;3.23;;;;;;;;;;5013163;28;20413;-44
2022/02/20 14:34:27;;;;;;;10.80;2.83;;;;;;;;;;5013114;28;20458;-44
2022/02/20 14:37:04;;;;;;;7.83;3.00;;;;;;;;;;5012977;28;20511;-44
2022/02/20 14:39:30;;;;;;;8.20;2.97;;;;;;;;;;5012907;28;20406;-44
2022/02/20 14:41:56;;;;;;;7.37;3.87;;;;;;;;;;5013190;28;20409;-44